PWSweather.com
Personal Weather Stations
Station Observations
KOHAVON11
Long Road Station, Avon, OH 44011

Long Road StationAvon, OH 44011

Lat: 41.437, Lon: -82.0477

Elevation: 686

Station Type: Davis Vantage Pro2

http://www.avon-weather.com

High Low Average
Temperature 36.0°F2.2°C 30.1°F-1.1°C 34.3°F1.3°C
Dew Point 29.7°F-1.3°C 22.2°F-5.4°C 26.8°F-2.9°C
Winds 18.0 mph 29.0 kmh Calm Calm 4.0 mph W6.4 kmh W
Wind Gusts 18.0 mph29.0 kmh -- 8.0 mph12.9 kmh
Humidity 83% 62% 74%
Pressure 30.10 in1019.3 mb 29.88 in1011.9 mb -
Precipitation 0.00 in0.0 mm - -
Hour Temp Dew Point Humidity Winds Wind Gusts Pressure Precip Precip Rate Daily Precip Total
12:03 AM 34.9°F1.6°C 26.4°F-3.1°C 71% 4.0 mph WSW6.4 kmh WSW 15.0 mph24.1 kmh 29.87 in1011.5 mb 0.00 in0.0 mm 0.00 in0.0 mm 0.14 in3.6 mm
12:08 AM 34.8°F1.6°C 26.6°F-3.0°C 72% 16.0 mph WSW25.7 kmh WSW 16.0 mph25.7 kmh 29.87 in1011.5 mb 0.00 in0.0 mm 0.00 in0.0 mm 0.14 in3.6 mm
12:13 AM 34.8°F1.6°C 26.6°F-3.0°C 72% 7.0 mph WSW11.3 kmh WSW 18.0 mph29.0 kmh 29.88 in1011.9 mb 0.00 in0.0 mm 0.00 in0.0 mm 0.14 in3.6 mm
12:18 AM 34.7°F1.5°C 26.5°F-3.1°C 72% 7.0 mph W11.3 kmh W 18.0 mph29.0 kmh 29.88 in1011.9 mb 0.00 in0.0 mm 0.00 in0.0 mm 0.14 in3.6 mm
12:23 AM 34.8°F1.6°C 26.6°F-3.0°C 72% 4.0 mph WSW6.4 kmh WSW 18.0 mph29.0 kmh 29.88 in1011.9 mb 0.00 in0.0 mm 0.00 in0.0 mm 0.14 in3.6 mm
12:28 AM 34.7°F1.5°C 26.5°F-3.1°C 72% 5.0 mph WSW8.0 kmh WSW 18.0 mph29.0 kmh 29.88 in1011.9 mb 0.00 in0.0 mm 0.00 in0.0 mm 0.14 in3.6 mm
12:33 AM 34.7°F1.5°C 26.9°F-2.8°C 73% 5.0 mph WSW8.0 kmh WSW 13.0 mph20.9 kmh 29.88 in1011.9 mb 0.00 in0.0 mm 0.00 in0.0 mm 0.14 in3.6 mm
12:38 AM 34.6°F1.4°C 26.8°F-2.9°C 73% 4.0 mph SW6.4 kmh SW 15.0 mph24.1 kmh 29.88 in1011.9 mb 0.00 in0.0 mm 0.00 in0.0 mm 0.14 in3.6 mm
12:43 AM 34.5°F1.4°C 26.7°F-2.9°C 73% 5.0 mph WSW8.0 kmh WSW 15.0 mph24.1 kmh 29.88 in1011.9 mb 0.00 in0.0 mm 0.00 in0.0 mm 0.14 in3.6 mm
12:48 AM 34.4°F1.3°C 26.6°F-3.0°C 73% 3.0 mph WSW4.8 kmh WSW 15.0 mph24.1 kmh 29.88 in1011.9 mb 0.00 in0.0 mm 0.00 in0.0 mm 0.14 in3.6 mm
12:53 AM 34.3°F1.3°C 26.5°F-3.1°C 73% 4.0 mph SW6.4 kmh SW 15.0 mph24.1 kmh 29.88 in1011.9 mb 0.00 in0.0 mm 0.00 in0.0 mm 0.14 in3.6 mm
12:58 AM 34.2°F1.2°C 26.4°F-3.1°C 73% 5.0 mph SW8.0 kmh SW 11.0 mph17.7 kmh 29.88 in1011.9 mb 0.00 in0.0 mm 0.00 in0.0 mm 0.14 in3.6 mm
01:03 AM 34.0°F1.1°C 26.5°F-3.1°C 74% 3.0 mph WSW4.8 kmh WSW 11.0 mph17.7 kmh 29.88 in1011.9 mb 0.00 in0.0 mm 0.00 in0.0 mm 0.00 in0.0 mm
01:08 AM 34.0°F1.1°C 26.2°F-3.2°C 73% 5.0 mph WSW8.0 kmh WSW 10.0 mph16.1 kmh 29.88 in1011.9 mb 0.00 in0.0 mm 0.00 in0.0 mm 0.00 in0.0 mm
01:13 AM 33.9°F1.1°C 26.4°F-3.1°C 74% 3.0 mph WSW4.8 kmh WSW 10.0 mph16.1 kmh 29.88 in1011.9 mb 0.00 in0.0 mm 0.00 in0.0 mm 0.00 in0.0 mm
01:18 AM 33.9°F1.1°C 26.8°F-2.9°C 75% 3.0 mph SW4.8 kmh SW 8.0 mph12.9 kmh 29.89 in1012.2 mb 0.00 in0.0 mm 0.00 in0.0 mm 0.00 in0.0 mm
01:23 AM 34.0°F1.1°C 26.9°F-2.8°C 75% 7.0 mph SSW11.3 kmh SSW 8.0 mph12.9 kmh 29.89 in1012.2 mb 0.00 in0.0 mm 0.00 in0.0 mm 0.00 in0.0 mm
01:28 AM 34.0°F1.1°C 26.9°F-2.8°C 75% 3.0 mph WSW4.8 kmh WSW 8.0 mph12.9 kmh 29.89 in1012.2 mb 0.00 in0.0 mm 0.00 in0.0 mm 0.00 in0.0 mm
01:33 AM 34.1°F1.2°C 26.9°F-2.8°C 75% 3.0 mph SW4.8 kmh SW 8.0 mph12.9 kmh 29.89 in1012.2 mb 0.00 in0.0 mm 0.00 in0.0 mm 0.00 in0.0 mm
01:38 AM 34.2°F1.2°C 27.0°F-2.8°C 75% 4.0 mph WSW6.4 kmh WSW 10.0 mph16.1 kmh 29.89 in1012.2 mb 0.00 in0.0 mm 0.00 in0.0 mm 0.00 in0.0 mm
01:43 AM 34.3°F1.3°C 27.1°F-2.7°C 75% 4.0 mph SW6.4 kmh SW 10.0 mph16.1 kmh 29.88 in1011.9 mb 0.00 in0.0 mm 0.00 in0.0 mm 0.00 in0.0 mm
01:48 AM 34.5°F1.4°C 27.3°F-2.6°C 75% 4.0 mph WSW6.4 kmh WSW 10.0 mph16.1 kmh 29.89 in1012.2 mb 0.00 in0.0 mm 0.00 in0.0 mm 0.00 in0.0 mm
01:53 AM 34.6°F1.4°C 27.4°F-2.6°C 75% 3.0 mph WSW4.8 kmh WSW 10.0 mph16.1 kmh 29.89 in1012.2 mb 0.00 in0.0 mm 0.00 in0.0 mm 0.00 in0.0 mm
01:58 AM 34.7°F1.5°C 27.5°F-2.5°C 75% 4.0 mph SW6.4 kmh SW 7.0 mph11.3 kmh 29.89 in1012.2 mb 0.00 in0.0 mm 0.00 in0.0 mm 0.00 in0.0 mm
02:03 AM 34.9°F1.6°C 27.7°F-2.4°C 75% 4.0 mph WSW6.4 kmh WSW 9.0 mph14.5 kmh 29.89 in1012.2 mb 0.00 in0.0 mm 0.00 in0.0 mm 0.00 in0.0 mm
02:08 AM 35.0°F1.7°C 27.8°F-2.3°C 75% 6.0 mph SW9.7 kmh SW 15.0 mph24.1 kmh 29.89 in1012.2 mb 0.00 in0.0 mm 0.00 in0.0 mm 0.00 in0.0 mm
02:13 AM 35.2°F1.8°C 28.0°F-2.2°C 75% 4.0 mph WSW6.4 kmh WSW 15.0 mph24.1 kmh 29.89 in1012.2 mb 0.00 in0.0 mm 0.00 in0.0 mm 0.00 in0.0 mm
02:18 AM 35.3°F1.8°C 28.1°F-2.2°C 75% 5.0 mph SW8.0 kmh SW 15.0 mph24.1 kmh 29.89 in1012.2 mb 0.00 in0.0 mm 0.00 in0.0 mm 0.00 in0.0 mm
02:23 AM 35.4°F1.9°C 28.2°F-2.1°C 75% 4.0 mph WSW6.4 kmh WSW 15.0 mph24.1 kmh 29.90 in1012.5 mb 0.00 in0.0 mm 0.00 in0.0 mm 0.00 in0.0 mm
02:28 AM 35.5°F1.9°C 28.3°F-2.1°C 75% 4.0 mph SW6.4 kmh SW 12.0 mph19.3 kmh 29.90 in1012.5 mb 0.00 in0.0 mm 0.00 in0.0 mm 0.00 in0.0 mm
02:33 AM 35.6°F2.0°C 28.4°F-2.0°C 75% 6.0 mph SW9.7 kmh SW 12.0 mph19.3 kmh 29.90 in1012.5 mb 0.00 in0.0 mm 0.00 in0.0 mm 0.00 in0.0 mm
02:38 AM 35.7°F2.1°C 28.5°F-1.9°C 75% 5.0 mph SW8.0 kmh SW 12.0 mph19.3 kmh 29.90 in1012.5 mb 0.00 in0.0 mm 0.00 in0.0 mm 0.00 in0.0 mm
02:43 AM 35.8°F2.1°C 28.6°F-1.9°C 75% 4.0 mph WSW6.4 kmh WSW 12.0 mph19.3 kmh 29.91 in1012.9 mb 0.00 in0.0 mm 0.00 in0.0 mm 0.00 in0.0 mm
02:48 AM 35.8°F2.1°C 28.6°F-1.9°C 75% 3.0 mph SW4.8 kmh SW 10.0 mph16.1 kmh 29.91 in1012.9 mb 0.00 in0.0 mm 0.00 in0.0 mm 0.00 in0.0 mm
02:53 AM 35.8°F2.1°C 28.6°F-1.9°C 75% 4.0 mph SW6.4 kmh SW 10.0 mph16.1 kmh 29.91 in1012.9 mb 0.00 in0.0 mm 0.00 in0.0 mm 0.00 in0.0 mm
02:58 AM 35.8°F2.1°C 28.6°F-1.9°C 75% 7.0 mph WSW11.3 kmh WSW 9.0 mph14.5 kmh 29.91 in1012.9 mb 0.00 in0.0 mm 0.00 in0.0 mm 0.00 in0.0 mm
03:03 AM 35.8°F2.1°C 28.6°F-1.9°C 75% 4.0 mph SW6.4 kmh SW 9.0 mph14.5 kmh 29.91 in1012.9 mb 0.00 in0.0 mm 0.00 in0.0 mm 0.00 in0.0 mm
03:08 AM 35.8°F2.1°C 28.9°F-1.7°C 76% 5.0 mph SW8.0 kmh SW 13.0 mph20.9 kmh 29.91 in1012.9 mb 0.00 in0.0 mm 0.00 in0.0 mm 0.00 in0.0 mm
03:13 AM 35.8°F2.1°C 28.9°F-1.7°C 76% 4.0 mph SW6.4 kmh SW 13.0 mph20.9 kmh 29.91 in1012.9 mb 0.00 in0.0 mm 0.00 in0.0 mm 0.00 in0.0 mm
03:18 AM 35.9°F2.2°C 29.0°F-1.7°C 76% 7.0 mph SW11.3 kmh SW 13.0 mph20.9 kmh 29.92 in1013.2 mb 0.00 in0.0 mm 0.00 in0.0 mm 0.00 in0.0 mm
03:23 AM 35.8°F2.1°C 28.9°F-1.7°C 76% 4.0 mph SW6.4 kmh SW 14.0 mph22.5 kmh 29.91 in1012.9 mb 0.00 in0.0 mm 0.00 in0.0 mm 0.00 in0.0 mm
03:28 AM 35.9°F2.2°C 29.3°F-1.5°C 77% 9.0 mph SW14.5 kmh SW 14.0 mph22.5 kmh 29.91 in1012.9 mb 0.00 in0.0 mm 0.00 in0.0 mm 0.00 in0.0 mm
03:33 AM 35.9°F2.2°C 29.3°F-1.5°C 77% 5.0 mph WSW8.0 kmh WSW 14.0 mph22.5 kmh 29.91 in1012.9 mb 0.00 in0.0 mm 0.00 in0.0 mm 0.00 in0.0 mm
03:38 AM 35.9°F2.2°C 29.0°F-1.7°C 76% 6.0 mph WSW9.7 kmh WSW 14.0 mph22.5 kmh 29.91 in1012.9 mb 0.00 in0.0 mm 0.00 in0.0 mm 0.00 in0.0 mm
03:43 AM 35.9°F2.2°C 29.0°F-1.7°C 76% 3.0 mph WSW4.8 kmh WSW 12.0 mph19.3 kmh 29.91 in1012.9 mb 0.00 in0.0 mm 0.00 in0.0 mm 0.00 in0.0 mm
03:48 AM 36.0°F2.2°C 29.1°F-1.6°C 76% 5.0 mph WSW8.0 kmh WSW 12.0 mph19.3 kmh 29.91 in1012.9 mb 0.00 in0.0 mm 0.00 in0.0 mm 0.00 in0.0 mm
03:53 AM 35.9°F2.2°C 29.0°F-1.7°C 76% 3.0 mph WSW4.8 kmh WSW 11.0 mph17.7 kmh 29.91 in1012.9 mb 0.00 in0.0 mm 0.00 in0.0 mm 0.00 in0.0 mm
03:58 AM 35.8°F2.1°C 28.9°F-1.7°C 76% 6.0 mph SW9.7 kmh SW 11.0 mph17.7 kmh 29.91 in1012.9 mb 0.00 in0.0 mm 0.00 in0.0 mm 0.00 in0.0 mm
04:03 AM 35.7°F2.1°C 28.8°F-1.8°C 76% 4.0 mph SW6.4 kmh SW 11.0 mph17.7 kmh 29.91 in1012.9 mb 0.00 in0.0 mm 0.00 in0.0 mm 0.00 in0.0 mm
04:08 AM 35.6°F2.0°C 28.7°F-1.8°C 76% 3.0 mph SW4.8 kmh SW 11.0 mph17.7 kmh 29.91 in1012.9 mb 0.00 in0.0 mm 0.00 in0.0 mm 0.00 in0.0 mm
04:13 AM 35.5°F1.9°C 28.6°F-1.9°C 76% 3.0 mph WSW4.8 kmh WSW 11.0 mph17.7 kmh 29.91 in1012.9 mb 0.00 in0.0 mm 0.00 in0.0 mm 0.00 in0.0 mm
04:18 AM 35.4°F1.9°C 28.5°F-1.9°C 76% 7.0 mph WSW11.3 kmh WSW 11.0 mph17.7 kmh 29.91 in1012.9 mb 0.00 in0.0 mm 0.00 in0.0 mm 0.00 in0.0 mm
04:23 AM 35.4°F1.9°C 28.5°F-1.9°C 76% 3.0 mph WSW4.8 kmh WSW 11.0 mph17.7 kmh 29.91 in1012.9 mb 0.00 in0.0 mm 0.00 in0.0 mm 0.00 in0.0 mm
04:28 AM 35.3°F1.8°C 28.8°F-1.8°C 77% 3.0 mph WSW4.8 kmh WSW 9.0 mph14.5 kmh 29.91 in1012.9 mb 0.00 in0.0 mm 0.00 in0.0 mm 0.00 in0.0 mm
04:33 AM 35.3°F1.8°C 28.8°F-1.8°C 77% 6.0 mph WSW9.7 kmh WSW 9.0 mph14.5 kmh 29.91 in1012.9 mb 0.00 in0.0 mm 0.00 in0.0 mm 0.00 in0.0 mm
04:38 AM 35.2°F1.8°C 28.7°F-1.8°C 77% 5.0 mph WSW8.0 kmh WSW 9.0 mph14.5 kmh 29.90 in1012.5 mb 0.00 in0.0 mm 0.00 in0.0 mm 0.00 in0.0 mm
04:43 AM 35.1°F1.7°C 28.6°F-1.9°C 77% 3.0 mph WSW4.8 kmh WSW 9.0 mph14.5 kmh 29.90 in1012.5 mb 0.00 in0.0 mm 0.00 in0.0 mm 0.00 in0.0 mm
04:48 AM 35.1°F1.7°C 28.6°F-1.9°C 77% 3.0 mph WSW4.8 kmh WSW 8.0 mph12.9 kmh 29.90 in1012.5 mb 0.00 in0.0 mm 0.00 in0.0 mm 0.00 in0.0 mm
04:53 AM 35.0°F1.7°C 28.5°F-1.9°C 77% 3.0 mph WSW4.8 kmh WSW 9.0 mph14.5 kmh 29.90 in1012.5 mb 0.00 in0.0 mm 0.00 in0.0 mm 0.00 in0.0 mm
04:58 AM 35.0°F1.7°C 28.8°F-1.8°C 78% 6.0 mph SSW9.7 kmh SSW 9.0 mph14.5 kmh 29.91 in1012.9 mb 0.00 in0.0 mm 0.00 in0.0 mm 0.00 in0.0 mm
05:03 AM 34.9°F1.6°C 28.7°F-1.8°C 78% 3.0 mph WSW4.8 kmh WSW 9.0 mph14.5 kmh 29.90 in1012.5 mb 0.00 in0.0 mm 0.00 in0.0 mm 0.00 in0.0 mm
05:08 AM 34.9°F1.6°C 28.7°F-1.8°C 78% 3.0 mph WSW4.8 kmh WSW 9.0 mph14.5 kmh 29.90 in1012.5 mb 0.00 in0.0 mm 0.00 in0.0 mm 0.00 in0.0 mm
05:13 AM 34.8°F1.6°C 28.6°F-1.9°C 78% 3.0 mph WSW4.8 kmh WSW 7.0 mph11.3 kmh 29.90 in1012.5 mb 0.00 in0.0 mm 0.00 in0.0 mm 0.00 in0.0 mm
05:18 AM 34.7°F1.5°C 28.5°F-1.9°C 78% 4.0 mph WSW6.4 kmh WSW 10.0 mph16.1 kmh 29.90 in1012.5 mb 0.00 in0.0 mm 0.00 in0.0 mm 0.00 in0.0 mm
05:23 AM 34.7°F1.5°C 28.5°F-1.9°C 78% 5.0 mph SW8.0 kmh SW 10.0 mph16.1 kmh 29.90 in1012.5 mb 0.00 in0.0 mm 0.00 in0.0 mm 0.00 in0.0 mm
05:28 AM 34.7°F1.5°C 28.8°F-1.8°C 79% 2.0 mph SW3.2 kmh SW 10.0 mph16.1 kmh 29.90 in1012.5 mb 0.00 in0.0 mm 0.00 in0.0 mm 0.00 in0.0 mm
05:33 AM 34.7°F1.5°C 28.8°F-1.8°C 79% 3.0 mph SW4.8 kmh SW 10.0 mph16.1 kmh 29.90 in1012.5 mb 0.00 in0.0 mm 0.00 in0.0 mm 0.00 in0.0 mm
05:38 AM 34.6°F1.4°C 28.7°F-1.8°C 79% 3.0 mph SW4.8 kmh SW 9.0 mph14.5 kmh 29.91 in1012.9 mb 0.00 in0.0 mm 0.00 in0.0 mm 0.00 in0.0 mm
05:43 AM 34.6°F1.4°C 28.7°F-1.8°C 79% 4.0 mph SW6.4 kmh SW 9.0 mph14.5 kmh 29.91 in1012.9 mb 0.00 in0.0 mm 0.00 in0.0 mm 0.00 in0.0 mm
05:48 AM 34.6°F1.4°C 28.7°F-1.8°C 79% 3.0 mph WSW4.8 kmh WSW 6.0 mph9.7 kmh 29.91 in1012.9 mb 0.00 in0.0 mm 0.00 in0.0 mm 0.00 in0.0 mm
05:53 AM 34.5°F1.4°C 28.6°F-1.9°C 79% 4.0 mph WSW6.4 kmh WSW 10.0 mph16.1 kmh 29.90 in1012.5 mb 0.00 in0.0 mm 0.00 in0.0 mm 0.00 in0.0 mm
05:58 AM 34.5°F1.4°C 28.6°F-1.9°C 79% 4.0 mph WSW6.4 kmh WSW 10.0 mph16.1 kmh 29.91 in1012.9 mb 0.00 in0.0 mm 0.00 in0.0 mm 0.00 in0.0 mm
06:03 AM 34.6°F1.4°C 28.7°F-1.8°C 79% 4.0 mph SW6.4 kmh SW 10.0 mph16.1 kmh 29.91 in1012.9 mb 0.00 in0.0 mm 0.00 in0.0 mm 0.00 in0.0 mm
06:08 AM 34.6°F1.4°C 28.7°F-1.8°C 79% 2.0 mph WSW3.2 kmh WSW 10.0 mph16.1 kmh 29.91 in1012.9 mb 0.00 in0.0 mm 0.00 in0.0 mm 0.00 in0.0 mm
06:13 AM 34.6°F1.4°C 28.7°F-1.8°C 79% 4.0 mph WNW6.4 kmh WNW 8.0 mph12.9 kmh 29.91 in1012.9 mb 0.00 in0.0 mm 0.00 in0.0 mm 0.00 in0.0 mm
06:18 AM 34.7°F1.5°C 29.1°F-1.6°C 80% 3.0 mph WSW4.8 kmh WSW 8.0 mph12.9 kmh 29.91 in1012.9 mb 0.00 in0.0 mm 0.00 in0.0 mm 0.00 in0.0 mm
06:23 AM 34.8°F1.6°C 29.2°F-1.6°C 80% 5.0 mph WSW8.0 kmh WSW 9.0 mph14.5 kmh 29.91 in1012.9 mb 0.00 in0.0 mm 0.00 in0.0 mm 0.00 in0.0 mm
06:28 AM 34.8°F1.6°C 29.2°F-1.6°C 80% 2.0 mph WSW3.2 kmh WSW 9.0 mph14.5 kmh 29.91 in1012.9 mb 0.00 in0.0 mm 0.00 in0.0 mm 0.00 in0.0 mm
06:33 AM 34.9°F1.6°C 29.3°F-1.5°C 80% 3.0 mph WSW4.8 kmh WSW 9.0 mph14.5 kmh 29.91 in1012.9 mb 0.00 in0.0 mm 0.00 in0.0 mm 0.00 in0.0 mm
06:38 AM 35.0°F1.7°C 29.4°F-1.4°C 80% 4.0 mph WSW6.4 kmh WSW 9.0 mph14.5 kmh 29.90 in1012.5 mb 0.00 in0.0 mm 0.00 in0.0 mm 0.00 in0.0 mm
06:43 AM 35.0°F1.7°C 29.4°F-1.4°C 80% 3.0 mph WSW4.8 kmh WSW 7.0 mph11.3 kmh 29.91 in1012.9 mb 0.00 in0.0 mm 0.00 in0.0 mm 0.00 in0.0 mm
06:48 AM 35.1°F1.7°C 29.5°F-1.4°C 80% 4.0 mph WSW6.4 kmh WSW 7.0 mph11.3 kmh 29.91 in1012.9 mb 0.00 in0.0 mm 0.00 in0.0 mm 0.00 in0.0 mm
06:53 AM 35.1°F1.7°C 29.5°F-1.4°C 80% 5.0 mph WSW8.0 kmh WSW 8.0 mph12.9 kmh 29.91 in1012.9 mb 0.00 in0.0 mm 0.00 in0.0 mm 0.00 in0.0 mm
06:58 AM 35.2°F1.8°C 29.6°F-1.3°C 80% 6.0 mph W9.7 kmh W 8.0 mph12.9 kmh 29.91 in1012.9 mb 0.00 in0.0 mm 0.00 in0.0 mm 0.00 in0.0 mm
07:03 AM 35.3°F1.8°C 29.4°F-1.4°C 79% 4.0 mph WSW6.4 kmh WSW 14.0 mph22.5 kmh 29.91 in1012.9 mb 0.00 in0.0 mm 0.00 in0.0 mm 0.00 in0.0 mm
07:08 AM 35.3°F1.8°C 29.7°F-1.3°C 80% 3.0 mph WSW4.8 kmh WSW 14.0 mph22.5 kmh 29.91 in1012.9 mb 0.00 in0.0 mm 0.00 in0.0 mm 0.00 in0.0 mm
07:13 AM 35.3°F1.8°C 29.7°F-1.3°C 80% 6.0 mph WSW9.7 kmh WSW 14.0 mph22.5 kmh 29.91 in1012.9 mb 0.00 in0.0 mm 0.00 in0.0 mm 0.00 in0.0 mm
07:18 AM 35.4°F1.9°C 29.5°F-1.4°C 79% 6.0 mph WSW9.7 kmh WSW 14.0 mph22.5 kmh 29.91 in1012.9 mb 0.00 in0.0 mm 0.00 in0.0 mm 0.00 in0.0 mm
07:23 AM 35.4°F1.9°C 29.5°F-1.4°C 79% 5.0 mph WSW8.0 kmh WSW 9.0 mph14.5 kmh 29.91 in1012.9 mb 0.00 in0.0 mm 0.00 in0.0 mm 0.00 in0.0 mm
07:28 AM 35.3°F1.8°C 29.4°F-1.4°C 79% 7.0 mph WSW11.3 kmh WSW 14.0 mph22.5 kmh 29.91 in1012.9 mb 0.00 in0.0 mm 0.00 in0.0 mm 0.00 in0.0 mm
07:33 AM 35.3°F1.8°C 29.4°F-1.4°C 79% 6.0 mph WSW9.7 kmh WSW 14.0 mph22.5 kmh 29.91 in1012.9 mb 0.00 in0.0 mm 0.00 in0.0 mm 0.00 in0.0 mm
07:38 AM 35.3°F1.8°C 29.4°F-1.4°C 79% 7.0 mph WSW11.3 kmh WSW 14.0 mph22.5 kmh 29.91 in1012.9 mb 0.00 in0.0 mm 0.00 in0.0 mm 0.00 in0.0 mm
07:43 AM 35.3°F1.8°C 29.4°F-1.4°C 79% 7.0 mph WSW11.3 kmh WSW 14.0 mph22.5 kmh 29.91 in1012.9 mb 0.00 in0.0 mm 0.00 in0.0 mm 0.00 in0.0 mm
07:48 AM 35.3°F1.8°C 29.4°F-1.4°C 79% 5.0 mph SW8.0 kmh SW 9.0 mph14.5 kmh 29.92 in1013.2 mb 0.00 in0.0 mm 0.00 in0.0 mm 0.00 in0.0 mm
07:53 AM 35.3°F1.8°C 29.4°F-1.4°C 79% 6.0 mph WSW9.7 kmh WSW 13.0 mph20.9 kmh 29.92 in1013.2 mb 0.00 in0.0 mm 0.00 in0.0 mm 0.00 in0.0 mm
07:58 AM 35.4°F1.9°C 29.5°F-1.4°C 79% 7.0 mph WSW11.3 kmh WSW 13.0 mph20.9 kmh 29.92 in1013.2 mb 0.00 in0.0 mm 0.00 in0.0 mm 0.00 in0.0 mm
08:03 AM 35.4°F1.9°C 29.5°F-1.4°C 79% 7.0 mph WSW11.3 kmh WSW 13.0 mph20.9 kmh 29.92 in1013.2 mb 0.00 in0.0 mm 0.00 in0.0 mm 0.00 in0.0 mm
08:08 AM 35.5°F1.9°C 29.6°F-1.3°C 79% 5.0 mph WSW8.0 kmh WSW 13.0 mph20.9 kmh 29.92 in1013.2 mb 0.00 in0.0 mm 0.00 in0.0 mm 0.00 in0.0 mm
08:13 AM 35.5°F1.9°C 29.6°F-1.3°C 79% 6.0 mph SW9.7 kmh SW 13.0 mph20.9 kmh 29.93 in1013.5 mb 0.00 in0.0 mm 0.00 in0.0 mm 0.00 in0.0 mm
08:18 AM 35.5°F1.9°C 29.3°F-1.5°C 78% 7.0 mph WSW11.3 kmh WSW 13.0 mph20.9 kmh 29.93 in1013.5 mb 0.00 in0.0 mm 0.00 in0.0 mm 0.00 in0.0 mm
08:23 AM 35.4°F1.9°C 29.5°F-1.4°C 79% 6.0 mph SW9.7 kmh SW 13.0 mph20.9 kmh 29.93 in1013.5 mb 0.00 in0.0 mm 0.00 in0.0 mm 0.00 in0.0 mm
08:28 AM 35.4°F1.9°C 29.5°F-1.4°C 79% 3.0 mph WSW4.8 kmh WSW 13.0 mph20.9 kmh 29.92 in1013.2 mb 0.00 in0.0 mm 0.00 in0.0 mm 0.00 in0.0 mm
08:33 AM 35.4°F1.9°C 29.5°F-1.4°C 79% 5.0 mph WSW8.0 kmh WSW 13.0 mph20.9 kmh 29.93 in1013.5 mb 0.00 in0.0 mm 0.00 in0.0 mm 0.00 in0.0 mm
08:38 AM 35.3°F1.8°C 29.4°F-1.4°C 79% 6.0 mph WSW9.7 kmh WSW 13.0 mph20.9 kmh 29.93 in1013.5 mb 0.00 in0.0 mm 0.00 in0.0 mm 0.00 in0.0 mm
08:43 AM 35.3°F1.8°C 29.4°F-1.4°C 79% 6.0 mph SW9.7 kmh SW 12.0 mph19.3 kmh 29.94 in1013.9 mb 0.00 in0.0 mm 0.00 in0.0 mm 0.00 in0.0 mm
08:48 AM 35.3°F1.8°C 29.4°F-1.4°C 79% 6.0 mph WNW9.7 kmh WNW 12.0 mph19.3 kmh 29.94 in1013.9 mb 0.00 in0.0 mm 0.00 in0.0 mm 0.00 in0.0 mm
08:53 AM 35.3°F1.8°C 29.1°F-1.6°C 78% 8.0 mph WSW12.9 kmh WSW 12.0 mph19.3 kmh 29.94 in1013.9 mb 0.00 in0.0 mm 0.00 in0.0 mm 0.00 in0.0 mm
08:58 AM 35.2°F1.8°C 29.0°F-1.7°C 78% 4.0 mph W6.4 kmh W 12.0 mph19.3 kmh 29.95 in1014.2 mb 0.00 in0.0 mm 0.00 in0.0 mm 0.00 in0.0 mm
09:03 AM 35.2°F1.8°C 29.0°F-1.7°C 78% 5.0 mph W8.0 kmh W 12.0 mph19.3 kmh 29.95 in1014.2 mb 0.00 in0.0 mm 0.00 in0.0 mm 0.00 in0.0 mm
09:08 AM 35.1°F1.7°C 28.9°F-1.7°C 78% 4.0 mph W6.4 kmh W 12.0 mph19.3 kmh 29.96 in1014.6 mb 0.00 in0.0 mm 0.00 in0.0 mm 0.00 in0.0 mm
09:13 AM 35.1°F1.7°C 28.9°F-1.7°C 78% 7.0 mph W11.3 kmh W 11.0 mph17.7 kmh 29.96 in1014.6 mb 0.00 in0.0 mm 0.00 in0.0 mm 0.00 in0.0 mm
09:18 AM 35.1°F1.7°C 29.2°F-1.6°C 79% 5.0 mph WSW8.0 kmh WSW 15.0 mph24.1 kmh 29.96 in1014.6 mb 0.00 in0.0 mm 0.00 in0.0 mm 0.00 in0.0 mm
09:23 AM 35.0°F1.7°C 29.1°F-1.6°C 79% 7.0 mph WNW11.3 kmh WNW 15.0 mph24.1 kmh 29.96 in1014.6 mb 0.00 in0.0 mm 0.00 in0.0 mm 0.00 in0.0 mm
09:28 AM 35.0°F1.7°C 29.1°F-1.6°C 79% 5.0 mph SW8.0 kmh SW 15.0 mph24.1 kmh 29.96 in1014.6 mb 0.00 in0.0 mm 0.00 in0.0 mm 0.00 in0.0 mm
09:33 AM 35.0°F1.7°C 28.8°F-1.8°C 78% 5.0 mph WSW8.0 kmh WSW 15.0 mph24.1 kmh 29.97 in1014.9 mb 0.00 in0.0 mm 0.00 in0.0 mm 0.00 in0.0 mm
09:38 AM 34.9°F1.6°C 28.7°F-1.8°C 78% 11.0 mph WNW17.7 kmh WNW 15.0 mph24.1 kmh 29.96 in1014.6 mb 0.00 in0.0 mm 0.00 in0.0 mm 0.00 in0.0 mm
09:43 AM 34.9°F1.6°C 28.7°F-1.8°C 78% 10.0 mph SW16.1 kmh SW 15.0 mph24.1 kmh 29.97 in1014.9 mb 0.00 in0.0 mm 0.00 in0.0 mm 0.00 in0.0 mm
09:48 AM 34.9°F1.6°C 28.7°F-1.8°C 78% 6.0 mph W9.7 kmh W 16.0 mph25.7 kmh 29.97 in1014.9 mb 0.00 in0.0 mm 0.00 in0.0 mm 0.00 in0.0 mm
09:53 AM 34.9°F1.6°C 28.7°F-1.8°C 78% 5.0 mph WSW8.0 kmh WSW 16.0 mph25.7 kmh 29.97 in1014.9 mb 0.00 in0.0 mm 0.00 in0.0 mm 0.00 in0.0 mm
09:58 AM 34.9°F1.6°C 28.7°F-1.8°C 78% 8.0 mph WSW12.9 kmh WSW 16.0 mph25.7 kmh 29.98 in1015.2 mb 0.00 in0.0 mm 0.00 in0.0 mm 0.00 in0.0 mm
10:03 AM 34.9°F1.6°C 28.7°F-1.8°C 78% 5.0 mph W8.0 kmh W 16.0 mph25.7 kmh 29.98 in1015.2 mb 0.00 in0.0 mm 0.00 in0.0 mm 0.00 in0.0 mm
10:08 AM 34.9°F1.6°C 28.7°F-1.8°C 78% 6.0 mph W9.7 kmh W 13.0 mph20.9 kmh 29.98 in1015.2 mb 0.00 in0.0 mm 0.00 in0.0 mm 0.00 in0.0 mm
10:13 AM 34.8°F1.6°C 28.6°F-1.9°C 78% 11.0 mph W17.7 kmh W 14.0 mph22.5 kmh 29.98 in1015.2 mb 0.00 in0.0 mm 0.00 in0.0 mm 0.00 in0.0 mm
10:18 AM 34.8°F1.6°C 28.6°F-1.9°C 78% 8.0 mph W12.9 kmh W 14.0 mph22.5 kmh 29.99 in1015.6 mb 0.00 in0.0 mm 0.00 in0.0 mm 0.00 in0.0 mm
10:23 AM 34.7°F1.5°C 28.5°F-1.9°C 78% 8.0 mph W12.9 kmh W 18.0 mph29.0 kmh 29.99 in1015.6 mb 0.00 in0.0 mm 0.00 in0.0 mm 0.00 in0.0 mm
10:28 AM 34.7°F1.5°C 28.5°F-1.9°C 78% 5.0 mph WSW8.0 kmh WSW 18.0 mph29.0 kmh 29.99 in1015.6 mb 0.00 in0.0 mm 0.00 in0.0 mm 0.00 in0.0 mm
10:33 AM 34.6°F1.4°C 28.7°F-1.8°C 79% 18.0 mph WNW29.0 kmh WNW 18.0 mph29.0 kmh 30.00 in1015.9 mb 0.00 in0.0 mm 0.00 in0.0 mm 0.00 in0.0 mm
10:38 AM 34.5°F1.4°C 28.9°F-1.7°C 80% 6.0 mph WSW9.7 kmh WSW 18.0 mph29.0 kmh 30.00 in1015.9 mb 0.00 in0.0 mm 0.00 in0.0 mm 0.00 in0.0 mm
10:43 AM 34.4°F1.3°C 29.2°F-1.6°C 81% 4.0 mph W6.4 kmh W 18.0 mph29.0 kmh 30.00 in1015.9 mb 0.00 in0.0 mm 0.00 in0.0 mm 0.00 in0.0 mm
10:48 AM 34.2°F1.2°C 29.0°F-1.7°C 81% 7.0 mph W11.3 kmh W 18.0 mph29.0 kmh 30.00 in1015.9 mb 0.00 in0.0 mm 0.00 in0.0 mm 0.00 in0.0 mm
10:53 AM 34.1°F1.2°C 29.2°F-1.6°C 82% 3.0 mph NW4.8 kmh NW 18.0 mph29.0 kmh 30.00 in1015.9 mb 0.00 in0.0 mm 0.00 in0.0 mm 0.00 in0.0 mm
10:58 AM 34.0°F1.1°C 29.1°F-1.6°C 82% 5.0 mph NW8.0 kmh NW 11.0 mph17.7 kmh 30.01 in1016.3 mb 0.00 in0.0 mm 0.00 in0.0 mm 0.00 in0.0 mm
11:03 AM 33.8°F1.0°C 28.9°F-1.7°C 82% 4.0 mph NW6.4 kmh NW 11.0 mph17.7 kmh 30.01 in1016.3 mb 0.00 in0.0 mm 0.00 in0.0 mm 0.00 in0.0 mm
11:08 AM 33.6°F0.9°C 28.7°F-1.8°C 82% 7.0 mph W11.3 kmh W 10.0 mph16.1 kmh 30.01 in1016.3 mb 0.00 in0.0 mm 0.00 in0.0 mm 0.00 in0.0 mm
11:13 AM 33.4°F0.8°C 28.8°F-1.8°C 83% 3.0 mph WNW4.8 kmh WNW 11.0 mph17.7 kmh 30.01 in1016.3 mb 0.00 in0.0 mm 0.00 in0.0 mm 0.00 in0.0 mm
11:18 AM 33.7°F0.9°C 29.1°F-1.6°C 83% 2.0 mph NW3.2 kmh NW 11.0 mph17.7 kmh 30.01 in1016.3 mb 0.00 in0.0 mm 0.00 in0.0 mm 0.00 in0.0 mm
11:23 AM 33.6°F0.9°C 29.0°F-1.7°C 83% 4.0 mph W6.4 kmh W 11.0 mph17.7 kmh 30.01 in1016.3 mb 0.00 in0.0 mm 0.00 in0.0 mm 0.00 in0.0 mm
11:28 AM 33.6°F0.9°C 29.0°F-1.7°C 83% 8.0 mph WNW12.9 kmh WNW 11.0 mph17.7 kmh 30.01 in1016.3 mb 0.00 in0.0 mm 0.00 in0.0 mm 0.00 in0.0 mm
11:33 AM 33.9°F1.1°C 29.3°F-1.5°C 83% 6.0 mph NW9.7 kmh NW 10.0 mph16.1 kmh 30.02 in1016.6 mb 0.00 in0.0 mm 0.00 in0.0 mm 0.00 in0.0 mm
11:38 AM 34.0°F1.1°C 29.1°F-1.6°C 82% 2.0 mph WNW3.2 kmh WNW 10.0 mph16.1 kmh 30.02 in1016.6 mb 0.00 in0.0 mm 0.00 in0.0 mm 0.00 in0.0 mm
11:43 AM 34.3°F1.3°C 29.4°F-1.4°C 82% 2.0 mph WNW3.2 kmh WNW 9.0 mph14.5 kmh 30.02 in1016.6 mb 0.00 in0.0 mm 0.00 in0.0 mm 0.00 in0.0 mm
11:48 AM 34.1°F1.2°C 28.9°F-1.7°C 81% 5.0 mph NW8.0 kmh NW 9.0 mph14.5 kmh 30.02 in1016.6 mb 0.00 in0.0 mm 0.00 in0.0 mm 0.00 in0.0 mm
11:53 AM 34.0°F1.1°C 28.5°F-1.9°C 80% 3.0 mph W4.8 kmh W 11.0 mph17.7 kmh 30.02 in1016.6 mb 0.00 in0.0 mm 0.00 in0.0 mm 0.00 in0.0 mm
11:58 AM 33.9°F1.1°C 28.4°F-2.0°C 80% 5.0 mph NW8.0 kmh NW 11.0 mph17.7 kmh 30.03 in1016.9 mb 0.00 in0.0 mm 0.00 in0.0 mm 0.00 in0.0 mm
12:03 PM 34.1°F1.2°C 28.6°F-1.9°C 80% 2.0 mph WNW3.2 kmh WNW 11.0 mph17.7 kmh 30.03 in1016.9 mb 0.00 in0.0 mm 0.00 in0.0 mm 0.00 in0.0 mm
12:08 PM 34.5°F1.4°C 28.6°F-1.9°C 79% 4.0 mph WSW6.4 kmh WSW 11.0 mph17.7 kmh 30.03 in1016.9 mb 0.00 in0.0 mm 0.00 in0.0 mm 0.00 in0.0 mm
12:13 PM 34.5°F1.4°C 27.3°F-2.6°C 75% 5.0 mph WNW8.0 kmh WNW 10.0 mph16.1 kmh 30.03 in1016.9 mb 0.00 in0.0 mm 0.00 in0.0 mm 0.00 in0.0 mm
12:18 PM 34.2°F1.2°C 26.4°F-3.1°C 73% 8.0 mph W12.9 kmh W 10.0 mph16.1 kmh 30.03 in1016.9 mb 0.00 in0.0 mm 0.00 in0.0 mm 0.00 in0.0 mm
12:23 PM 34.1°F1.2°C 25.9°F-3.4°C 72% 3.0 mph WNW4.8 kmh WNW 11.0 mph17.7 kmh 30.04 in1017.3 mb 0.00 in0.0 mm 0.00 in0.0 mm 0.00 in0.0 mm
12:28 PM 34.1°F1.2°C 25.6°F-3.6°C 71% 7.0 mph WNW11.3 kmh WNW 11.0 mph17.7 kmh 30.04 in1017.3 mb 0.00 in0.0 mm 0.00 in0.0 mm 0.00 in0.0 mm
12:33 PM 34.3°F1.3°C 25.8°F-3.4°C 71% 6.0 mph W9.7 kmh W 11.0 mph17.7 kmh 30.04 in1017.3 mb 0.00 in0.0 mm 0.00 in0.0 mm 0.00 in0.0 mm
12:38 PM 34.3°F1.3°C 25.1°F-3.8°C 69% 5.0 mph NW8.0 kmh NW 11.0 mph17.7 kmh 30.03 in1016.9 mb 0.00 in0.0 mm 0.00 in0.0 mm 0.00 in0.0 mm
12:43 PM 34.2°F1.2°C 25.0°F-3.9°C 69% 3.0 mph NW4.8 kmh NW 11.0 mph17.7 kmh 30.03 in1016.9 mb 0.00 in0.0 mm 0.00 in0.0 mm 0.00 in0.0 mm
12:48 PM 34.3°F1.3°C 25.1°F-3.8°C 69% 8.0 mph NW12.9 kmh NW 11.0 mph17.7 kmh 30.03 in1016.9 mb 0.00 in0.0 mm 0.00 in0.0 mm 0.00 in0.0 mm
12:53 PM 34.4°F1.3°C 25.2°F-3.8°C 69% 5.0 mph W8.0 kmh W 11.0 mph17.7 kmh 30.03 in1016.9 mb 0.00 in0.0 mm 0.00 in0.0 mm 0.00 in0.0 mm
12:58 PM 34.5°F1.4°C 25.6°F-3.6°C 70% 3.0 mph W4.8 kmh W 11.0 mph17.7 kmh 30.03 in1016.9 mb 0.00 in0.0 mm 0.00 in0.0 mm 0.00 in0.0 mm
01:03 PM 35.2°F1.8°C 25.9°F-3.4°C 69% 4.0 mph W6.4 kmh W 11.0 mph17.7 kmh 30.03 in1016.9 mb 0.00 in0.0 mm 0.00 in0.0 mm 0.00 in0.0 mm
01:08 PM 35.1°F1.7°C 25.8°F-3.4°C 69% 2.0 mph NW3.2 kmh NW 11.0 mph17.7 kmh 30.03 in1016.9 mb 0.00 in0.0 mm 0.00 in0.0 mm 0.00 in0.0 mm
01:13 PM 34.9°F1.6°C 25.6°F-3.6°C 69% 5.0 mph NW8.0 kmh NW 11.0 mph17.7 kmh 30.03 in1016.9 mb 0.00 in0.0 mm 0.00 in0.0 mm 0.00 in0.0 mm
01:18 PM 34.8°F1.6°C 25.6°F-3.6°C 69% 3.0 mph W4.8 kmh W 11.0 mph17.7 kmh 30.03 in1016.9 mb 0.00 in0.0 mm 0.00 in0.0 mm 0.00 in0.0 mm
01:23 PM 35.4°F1.9°C 26.5°F-3.1°C 70% 6.0 mph NNW9.7 kmh NNW 11.0 mph17.7 kmh 30.02 in1016.6 mb 0.00 in0.0 mm 0.00 in0.0 mm 0.00 in0.0 mm
01:28 PM 35.5°F1.9°C 26.2°F-3.2°C 69% 11.0 mph WSW17.7 kmh WSW 11.0 mph17.7 kmh 30.03 in1016.9 mb 0.00 in0.0 mm 0.00 in0.0 mm 0.00 in0.0 mm
01:33 PM 35.4°F1.9°C 25.4°F-3.7°C 67% 5.0 mph WSW8.0 kmh WSW 12.0 mph19.3 kmh 30.02 in1016.6 mb 0.00 in0.0 mm 0.00 in0.0 mm 0.00 in0.0 mm
01:38 PM 35.3°F1.8°C 25.3°F-3.7°C 67% 3.0 mph WSW4.8 kmh WSW 12.0 mph19.3 kmh 30.02 in1016.6 mb 0.00 in0.0 mm 0.00 in0.0 mm 0.00 in0.0 mm
01:43 PM 35.2°F1.8°C 24.5°F-4.2°C 65% 7.0 mph W11.3 kmh W 13.0 mph20.9 kmh 30.02 in1016.6 mb 0.00 in0.0 mm 0.00 in0.0 mm 0.00 in0.0 mm
01:48 PM 34.9°F1.6°C 23.8°F-4.6°C 64% 9.0 mph W14.5 kmh W 14.0 mph22.5 kmh 30.02 in1016.6 mb 0.00 in0.0 mm 0.00 in0.0 mm 0.00 in0.0 mm
01:53 PM 35.1°F1.7°C 23.6°F-4.7°C 63% 5.0 mph SW8.0 kmh SW 14.0 mph22.5 kmh 30.02 in1016.6 mb 0.00 in0.0 mm 0.00 in0.0 mm 0.00 in0.0 mm
01:58 PM 35.1°F1.7°C 23.2°F-4.9°C 62% 6.0 mph W9.7 kmh W 14.0 mph22.5 kmh 30.02 in1016.6 mb 0.00 in0.0 mm 0.00 in0.0 mm 0.00 in0.0 mm
02:03 PM 35.1°F1.7°C 23.2°F-4.9°C 62% 8.0 mph NW12.9 kmh NW 14.0 mph22.5 kmh 30.02 in1016.6 mb 0.00 in0.0 mm 0.00 in0.0 mm 0.00 in0.0 mm
02:08 PM 35.1°F1.7°C 23.2°F-4.9°C 62% 4.0 mph WNW6.4 kmh WNW 11.0 mph17.7 kmh 30.01 in1016.3 mb 0.00 in0.0 mm 0.00 in0.0 mm 0.00 in0.0 mm
02:13 PM 35.0°F1.7°C 23.5°F-4.7°C 63% 2.0 mph W3.2 kmh W 11.0 mph17.7 kmh 30.01 in1016.3 mb 0.00 in0.0 mm 0.00 in0.0 mm 0.00 in0.0 mm
02:18 PM 35.2°F1.8°C 23.3°F-4.8°C 62% 4.0 mph WNW6.4 kmh WNW 9.0 mph14.5 kmh 30.01 in1016.3 mb 0.00 in0.0 mm 0.00 in0.0 mm 0.00 in0.0 mm
02:23 PM 35.1°F1.7°C 23.2°F-4.9°C 62% 1.0 mph W1.6 kmh W 9.0 mph14.5 kmh 30.01 in1016.3 mb 0.00 in0.0 mm 0.00 in0.0 mm 0.00 in0.0 mm
02:28 PM 35.2°F1.8°C 23.7°F-4.6°C 63% 5.0 mph WSW8.0 kmh WSW 9.0 mph14.5 kmh 30.01 in1016.3 mb 0.00 in0.0 mm 0.00 in0.0 mm 0.00 in0.0 mm
02:33 PM 35.3°F1.8°C 23.4°F-4.8°C 62% 5.0 mph W8.0 kmh W 10.0 mph16.1 kmh 30.01 in1016.3 mb 0.00 in0.0 mm 0.00 in0.0 mm 0.00 in0.0 mm
02:38 PM 35.1°F1.7°C 23.6°F-4.7°C 63% 4.0 mph WNW6.4 kmh WNW 10.0 mph16.1 kmh 30.01 in1016.3 mb 0.00 in0.0 mm 0.00 in0.0 mm 0.00 in0.0 mm
02:43 PM 35.2°F1.8°C 23.7°F-4.6°C 63% 3.0 mph NW4.8 kmh NW 10.0 mph16.1 kmh 30.02 in1016.6 mb 0.00 in0.0 mm 0.00 in0.0 mm 0.00 in0.0 mm
02:48 PM 35.3°F1.8°C 23.8°F-4.6°C 63% 7.0 mph WNW11.3 kmh WNW 10.0 mph16.1 kmh 30.02 in1016.6 mb 0.00 in0.0 mm 0.00 in0.0 mm 0.00 in0.0 mm
02:53 PM 35.2°F1.8°C 23.3°F-4.8°C 62% 7.0 mph NW11.3 kmh NW 9.0 mph14.5 kmh 30.02 in1016.6 mb 0.00 in0.0 mm 0.00 in0.0 mm 0.00 in0.0 mm
02:58 PM 35.1°F1.7°C 23.6°F-4.7°C 63% 6.0 mph W9.7 kmh W 9.0 mph14.5 kmh 30.01 in1016.3 mb 0.00 in0.0 mm 0.00 in0.0 mm 0.00 in0.0 mm
03:03 PM 35.4°F1.9°C 23.9°F-4.5°C 63% 3.0 mph NW4.8 kmh NW 9.0 mph14.5 kmh 30.00 in1015.9 mb 0.00 in0.0 mm 0.00 in0.0 mm 0.00 in0.0 mm
03:08 PM 35.5°F1.9°C 24.0°F-4.4°C 63% 3.0 mph W4.8 kmh W 9.0 mph14.5 kmh 30.01 in1016.3 mb 0.00 in0.0 mm 0.00 in0.0 mm 0.00 in0.0 mm
03:13 PM 35.5°F1.9°C 24.0°F-4.4°C 63% 9.0 mph WNW14.5 kmh WNW 9.0 mph14.5 kmh 30.01 in1016.3 mb 0.00 in0.0 mm 0.00 in0.0 mm 0.00 in0.0 mm
03:18 PM 35.4°F1.9°C 23.5°F-4.7°C 62% 3.0 mph WNW4.8 kmh WNW 10.0 mph16.1 kmh 30.01 in1016.3 mb 0.00 in0.0 mm 0.00 in0.0 mm 0.00 in0.0 mm
03:23 PM 35.5°F1.9°C 24.0°F-4.4°C 63% 3.0 mph W4.8 kmh W 10.0 mph16.1 kmh 30.01 in1016.3 mb 0.00 in0.0 mm 0.00 in0.0 mm 0.00 in0.0 mm
03:28 PM 35.6°F2.0°C 24.5°F-4.2°C 64% 2.0 mph WNW3.2 kmh WNW 10.0 mph16.1 kmh 30.01 in1016.3 mb 0.00 in0.0 mm 0.00 in0.0 mm 0.00 in0.0 mm
03:33 PM 35.5°F1.9°C 24.0°F-4.4°C 63% 4.0 mph WNW6.4 kmh WNW 10.0 mph16.1 kmh 30.01 in1016.3 mb 0.00 in0.0 mm 0.00 in0.0 mm 0.00 in0.0 mm
03:38 PM 35.5°F1.9°C 24.0°F-4.4°C 63% 4.0 mph WNW6.4 kmh WNW 7.0 mph11.3 kmh 30.00 in1015.9 mb 0.00 in0.0 mm 0.00 in0.0 mm 0.00 in0.0 mm
03:43 PM 35.6°F2.0°C 24.5°F-4.2°C 64% 5.0 mph NW8.0 kmh NW 7.0 mph11.3 kmh 30.00 in1015.9 mb 0.00 in0.0 mm 0.00 in0.0 mm 0.00 in0.0 mm
03:48 PM 35.5°F1.9°C 24.0°F-4.4°C 63% 4.0 mph NW6.4 kmh NW 7.0 mph11.3 kmh 30.01 in1016.3 mb 0.00 in0.0 mm 0.00 in0.0 mm 0.00 in0.0 mm
03:53 PM 35.5°F1.9°C 24.4°F-4.2°C 64% 1.0 mph NW1.6 kmh NW 7.0 mph11.3 kmh 30.00 in1015.9 mb 0.00 in0.0 mm 0.00 in0.0 mm 0.00 in0.0 mm
03:58 PM 35.5°F1.9°C 24.0°F-4.4°C 63% 2.0 mph WNW3.2 kmh WNW 6.0 mph9.7 kmh 30.01 in1016.3 mb 0.00 in0.0 mm 0.00 in0.0 mm 0.00 in0.0 mm
04:03 PM 35.4°F1.9°C 24.3°F-4.3°C 64% Calm Calm -- 30.02 in1016.6 mb 0.00 in0.0 mm 0.00 in0.0 mm 0.00 in0.0 mm
04:08 PM 35.3°F1.8°C 24.2°F-4.3°C 64% 3.0 mph W4.8 kmh W 4.0 mph6.4 kmh 30.01 in1016.3 mb 0.00 in0.0 mm 0.00 in0.0 mm 0.00 in0.0 mm
04:13 PM 35.3°F1.8°C 24.2°F-4.3°C 64% 1.0 mph W1.6 kmh W 4.0 mph6.4 kmh 30.02 in1016.6 mb 0.00 in0.0 mm 0.00 in0.0 mm 0.00 in0.0 mm
04:18 PM 35.4°F1.9°C 24.3°F-4.3°C 64% 2.0 mph WNW3.2 kmh WNW 5.0 mph8.0 kmh 30.02 in1016.6 mb 0.00 in0.0 mm 0.00 in0.0 mm 0.00 in0.0 mm
04:23 PM 35.5°F1.9°C 24.7°F-4.1°C 65% 1.0 mph WNW1.6 kmh WNW 5.0 mph8.0 kmh 30.02 in1016.6 mb 0.00 in0.0 mm 0.00 in0.0 mm 0.00 in0.0 mm
04:28 PM 35.5°F1.9°C 24.7°F-4.1°C 65% 2.0 mph WNW3.2 kmh WNW 5.0 mph8.0 kmh 30.02 in1016.6 mb 0.00 in0.0 mm 0.00 in0.0 mm 0.00 in0.0 mm
04:33 PM 35.5°F1.9°C 24.7°F-4.1°C 65% Calm Calm 1.0 mph1.6 kmh 30.02 in1016.6 mb 0.00 in0.0 mm 0.00 in0.0 mm 0.00 in0.0 mm
04:38 PM 35.5°F1.9°C 25.1°F-3.8°C 66% Calm Calm -- 30.03 in1016.9 mb 0.00 in0.0 mm 0.00 in0.0 mm 0.00 in0.0 mm
04:43 PM 35.7°F2.1°C 25.3°F-3.7°C 66% Calm Calm -- 30.03 in1016.9 mb 0.00 in0.0 mm 0.00 in0.0 mm 0.00 in0.0 mm
04:48 PM 35.7°F2.1°C 24.9°F-3.9°C 65% Calm Calm -- 30.03 in1016.9 mb 0.00 in0.0 mm 0.00 in0.0 mm 0.00 in0.0 mm
04:53 PM 35.7°F2.1°C 24.9°F-3.9°C 65% Calm Calm -- 30.03 in1016.9 mb 0.00 in0.0 mm 0.00 in0.0 mm 0.00 in0.0 mm
04:58 PM 35.6°F2.0°C 24.8°F-4.0°C 65% Calm Calm -- 30.03 in1016.9 mb 0.00 in0.0 mm 0.00 in0.0 mm 0.00 in0.0 mm
05:03 PM 35.6°F2.0°C 24.8°F-4.0°C 65% Calm Calm -- 30.04 in1017.3 mb 0.00 in0.0 mm 0.00 in0.0 mm 0.00 in0.0 mm
05:08 PM 35.5°F1.9°C 25.1°F-3.8°C 66% Calm Calm -- 30.04 in1017.3 mb 0.00 in0.0 mm 0.00 in0.0 mm 0.00 in0.0 mm
05:13 PM 35.5°F1.9°C 25.1°F-3.8°C 66% Calm Calm -- 30.04 in1017.3 mb 0.00 in0.0 mm 0.00 in0.0 mm 0.00 in0.0 mm
05:18 PM 35.5°F1.9°C 25.1°F-3.8°C 66% Calm Calm -- 30.04 in1017.3 mb 0.00 in0.0 mm 0.00 in0.0 mm 0.00 in0.0 mm
05:23 PM 35.5°F1.9°C 25.1°F-3.8°C 66% Calm Calm -- 30.04 in1017.3 mb 0.00 in0.0 mm 0.00 in0.0 mm 0.00 in0.0 mm
05:28 PM 35.4°F1.9°C 25.0°F-3.9°C 66% Calm Calm -- 30.04 in1017.3 mb 0.00 in0.0 mm 0.00 in0.0 mm 0.00 in0.0 mm
05:33 PM 35.3°F1.8°C 25.3°F-3.7°C 67% Calm Calm -- 30.04 in1017.3 mb 0.00 in0.0 mm 0.00 in0.0 mm 0.00 in0.0 mm
05:38 PM 35.1°F1.7°C 25.1°F-3.8°C 67% Calm Calm -- 30.05 in1017.6 mb 0.00 in0.0 mm 0.00 in0.0 mm 0.00 in0.0 mm
05:43 PM 35.1°F1.7°C 25.1°F-3.8°C 67% Calm Calm -- 30.05 in1017.6 mb 0.00 in0.0 mm 0.00 in0.0 mm 0.00 in0.0 mm
05:48 PM 35.1°F1.7°C 25.1°F-3.8°C 67% Calm Calm -- 30.05 in1017.6 mb 0.00 in0.0 mm 0.00 in0.0 mm 0.00 in0.0 mm
05:53 PM 35.2°F1.8°C 25.2°F-3.8°C 67% Calm Calm -- 30.05 in1017.6 mb 0.00 in0.0 mm 0.00 in0.0 mm 0.00 in0.0 mm
05:58 PM 35.1°F1.7°C 25.1°F-3.8°C 67% Calm Calm -- 30.05 in1017.6 mb 0.00 in0.0 mm 0.00 in0.0 mm 0.00 in0.0 mm
06:03 PM 35.0°F1.7°C 25.4°F-3.7°C 68% Calm Calm -- 30.06 in1017.9 mb 0.00 in0.0 mm 0.00 in0.0 mm 0.00 in0.0 mm
06:08 PM 34.8°F1.6°C 25.2°F-3.8°C 68% 5.0 mph W8.0 kmh W 5.0 mph8.0 kmh 30.06 in1017.9 mb 0.00 in0.0 mm 0.00 in0.0 mm 0.00 in0.0 mm
06:13 PM 34.7°F1.5°C 25.1°F-3.8°C 68% 1.0 mph WNW1.6 kmh WNW 5.0 mph8.0 kmh 30.05 in1017.6 mb 0.00 in0.0 mm 0.00 in0.0 mm 0.00 in0.0 mm
06:18 PM 34.6°F1.4°C 25.0°F-3.9°C 68% 2.0 mph N3.2 kmh N 5.0 mph8.0 kmh 30.06 in1017.9 mb 0.00 in0.0 mm 0.00 in0.0 mm 0.00 in0.0 mm
06:23 PM 34.6°F1.4°C 25.0°F-3.9°C 68% Calm Calm -- 30.06 in1017.9 mb 0.00 in0.0 mm 0.00 in0.0 mm 0.00 in0.0 mm
06:28 PM 34.5°F1.4°C 24.5°F-4.2°C 67% Calm Calm -- 30.07 in1018.3 mb 0.00 in0.0 mm 0.00 in0.0 mm 0.00 in0.0 mm
06:33 PM 34.4°F1.3°C 24.4°F-4.2°C 67% Calm Calm -- 30.07 in1018.3 mb 0.00 in0.0 mm 0.00 in0.0 mm 0.00 in0.0 mm
06:38 PM 34.3°F1.3°C 24.3°F-4.3°C 67% Calm Calm -- 30.07 in1018.3 mb 0.00 in0.0 mm 0.00 in0.0 mm 0.00 in0.0 mm
06:43 PM 34.1°F1.2°C 24.2°F-4.3°C 67% Calm Calm -- 30.07 in1018.3 mb 0.00 in0.0 mm 0.00 in0.0 mm 0.00 in0.0 mm
06:48 PM 34.0°F1.1°C 24.1°F-4.4°C 67% Calm Calm -- 30.07 in1018.3 mb 0.00 in0.0 mm 0.00 in0.0 mm 0.00 in0.0 mm
06:53 PM 33.8°F1.0°C 24.2°F-4.3°C 68% Calm Calm -- 30.07 in1018.3 mb 0.00 in0.0 mm 0.00 in0.0 mm 0.00 in0.0 mm
06:58 PM 33.8°F1.0°C 24.2°F-4.3°C 68% Calm Calm -- 30.08 in1018.6 mb 0.00 in0.0 mm 0.00 in0.0 mm 0.00 in0.0 mm
07:03 PM 33.7°F0.9°C 24.1°F-4.4°C 68% Calm Calm -- 30.07 in1018.3 mb 0.00 in0.0 mm 0.00 in0.0 mm 0.00 in0.0 mm
07:08 PM 33.6°F0.9°C 24.0°F-4.4°C 68% Calm Calm -- 30.08 in1018.6 mb 0.00 in0.0 mm 0.00 in0.0 mm 0.00 in0.0 mm
07:13 PM 33.5°F0.8°C 23.9°F-4.5°C 68% Calm Calm -- 30.08 in1018.6 mb 0.00 in0.0 mm 0.00 in0.0 mm 0.00 in0.0 mm
07:18 PM 33.4°F0.8°C 24.2°F-4.3°C 69% Calm Calm -- 30.08 in1018.6 mb 0.00 in0.0 mm 0.00 in0.0 mm 0.00 in0.0 mm
07:23 PM 33.3°F0.7°C 23.8°F-4.6°C 68% Calm Calm -- 30.08 in1018.6 mb 0.00 in0.0 mm 0.00 in0.0 mm 0.00 in0.0 mm
07:28 PM 33.2°F0.7°C 24.0°F-4.4°C 69% Calm Calm -- 30.08 in1018.6 mb 0.00 in0.0 mm 0.00 in0.0 mm 0.00 in0.0 mm
07:33 PM 33.1°F0.6°C 23.9°F-4.5°C 69% Calm Calm -- 30.08 in1018.6 mb 0.00 in0.0 mm 0.00 in0.0 mm 0.00 in0.0 mm
07:38 PM 32.9°F0.5°C 23.7°F-4.6°C 69% Calm Calm -- 30.08 in1018.6 mb 0.00 in0.0 mm 0.00 in0.0 mm 0.00 in0.0 mm
07:43 PM 32.8°F0.4°C 23.6°F-4.7°C 69% Calm Calm -- 30.08 in1018.6 mb 0.00 in0.0 mm 0.00 in0.0 mm 0.00 in0.0 mm
07:48 PM 32.6°F0.3°C 23.8°F-4.6°C 70% Calm Calm -- 30.08 in1018.6 mb 0.00 in0.0 mm 0.00 in0.0 mm 0.00 in0.0 mm
07:53 PM 32.5°F0.3°C 23.7°F-4.6°C 70% Calm Calm -- 30.08 in1018.6 mb 0.00 in0.0 mm 0.00 in0.0 mm 0.00 in0.0 mm
07:58 PM 32.3°F0.2°C 23.5°F-4.7°C 70% Calm Calm -- 30.09 in1019.0 mb 0.00 in0.0 mm 0.00 in0.0 mm 0.00 in0.0 mm
08:03 PM 32.2°F0.1°C 23.8°F-4.6°C 71% Calm Calm -- 30.08 in1018.6 mb 0.00 in0.0 mm 0.00 in0.0 mm 0.00 in0.0 mm
08:08 PM 32.0°F0.0°C 23.2°F-4.9°C 70% Calm Calm -- 30.08 in1018.6 mb 0.00 in0.0 mm 0.00 in0.0 mm 0.00 in0.0 mm
08:13 PM 31.9°F-0.1°C 23.1°F-4.9°C 70% Calm Calm -- 30.08 in1018.6 mb 0.00 in0.0 mm 0.00 in0.0 mm 0.00 in0.0 mm
08:18 PM 31.8°F-0.1°C 23.0°F-5.0°C 70% Calm Calm -- 30.07 in1018.3 mb 0.00 in0.0 mm 0.00 in0.0 mm 0.00 in0.0 mm
08:23 PM 31.6°F-0.2°C 23.2°F-4.9°C 71% Calm Calm -- 30.07 in1018.3 mb 0.00 in0.0 mm 0.00 in0.0 mm 0.00 in0.0 mm
08:28 PM 31.5°F-0.3°C 23.1°F-4.9°C 71% Calm Calm -- 30.07 in1018.3 mb 0.00 in0.0 mm 0.00 in0.0 mm 0.00 in0.0 mm
08:33 PM 31.3°F-0.4°C 22.9°F-5.1°C 71% Calm Calm -- 30.07 in1018.3 mb 0.00 in0.0 mm 0.00 in0.0 mm 0.00 in0.0 mm
08:38 PM 31.0°F-0.6°C 22.6°F-5.2°C 71% Calm Calm -- 30.07 in1018.3 mb 0.00 in0.0 mm 0.00 in0.0 mm 0.00 in0.0 mm
08:43 PM 30.8°F-0.7°C 22.4°F-5.3°C 71% Calm Calm -- 30.07 in1018.3 mb 0.00 in0.0 mm 0.00 in0.0 mm 0.00 in0.0 mm
08:48 PM 30.6°F-0.8°C 22.2°F-5.4°C 71% Calm Calm -- 30.08 in1018.6 mb 0.00 in0.0 mm 0.00 in0.0 mm 0.00 in0.0 mm
08:53 PM 30.4°F-0.9°C 22.4°F-5.3°C 72% Calm Calm -- 30.07 in1018.3 mb 0.00 in0.0 mm 0.00 in0.0 mm 0.00 in0.0 mm
08:58 PM 30.3°F-0.9°C 22.3°F-5.4°C 72% Calm Calm -- 30.07 in1018.3 mb 0.00 in0.0 mm 0.00 in0.0 mm 0.00 in0.0 mm
09:03 PM 30.2°F-1.0°C 22.2°F-5.4°C 72% 1.0 mph S1.6 kmh S 1.0 mph1.6 kmh 30.07 in1018.3 mb 0.00 in0.0 mm 0.00 in0.0 mm 0.00 in0.0 mm
09:08 PM 30.1°F-1.1°C 22.4°F-5.3°C 73% 2.0 mph S3.2 kmh S 2.0 mph3.2 kmh 30.07 in1018.3 mb 0.00 in0.0 mm 0.00 in0.0 mm 0.00 in0.0 mm
09:13 PM 30.3°F-0.9°C 23.0°F-5.0°C 74% 2.0 mph SSW3.2 kmh SSW 3.0 mph4.8 kmh 30.07 in1018.3 mb 0.00 in0.0 mm 0.00 in0.0 mm 0.00 in0.0 mm
09:18 PM 30.5°F-0.8°C 23.5°F-4.7°C 75% 2.0 mph SW3.2 kmh SW 3.0 mph4.8 kmh 30.07 in1018.3 mb 0.00 in0.0 mm 0.00 in0.0 mm 0.00 in0.0 mm
09:23 PM 30.7°F-0.7°C 24.0°F-4.4°C 76% 2.0 mph SW3.2 kmh SW 3.0 mph4.8 kmh 30.07 in1018.3 mb 0.00 in0.0 mm 0.00 in0.0 mm 0.00 in0.0 mm
09:28 PM 30.8°F-0.7°C 24.1°F-4.4°C 76% 2.0 mph SW3.2 kmh SW 3.0 mph4.8 kmh 30.07 in1018.3 mb 0.00 in0.0 mm 0.00 in0.0 mm 0.00 in0.0 mm
09:33 PM 31.0°F-0.6°C 24.6°F-4.1°C 77% Calm Calm 3.0 mph4.8 kmh 30.07 in1018.3 mb 0.00 in0.0 mm 0.00 in0.0 mm 0.00 in0.0 mm
09:38 PM 31.3°F-0.4°C 24.9°F-3.9°C 77% Calm Calm 4.0 mph6.4 kmh 30.07 in1018.3 mb 0.00 in0.0 mm 0.00 in0.0 mm 0.00 in0.0 mm
09:43 PM 31.5°F-0.3°C 25.4°F-3.7°C 78% Calm Calm 1.0 mph1.6 kmh 30.07 in1018.3 mb 0.00 in0.0 mm 0.00 in0.0 mm 0.00 in0.0 mm
09:48 PM 31.7°F-0.2°C 25.6°F-3.6°C 78% Calm Calm 2.0 mph3.2 kmh 30.07 in1018.3 mb 0.00 in0.0 mm 0.00 in0.0 mm 0.00 in0.0 mm
09:53 PM 32.0°F0.0°C 25.9°F-3.4°C 78% 4.0 mph SW6.4 kmh SW 5.0 mph8.0 kmh 30.07 in1018.3 mb 0.00 in0.0 mm 0.00 in0.0 mm 0.00 in0.0 mm
09:58 PM 32.3°F0.2°C 26.2°F-3.2°C 78% 3.0 mph SW4.8 kmh SW 6.0 mph9.7 kmh 30.08 in1018.6 mb 0.00 in0.0 mm 0.00 in0.0 mm 0.00 in0.0 mm
10:03 PM 32.6°F0.3°C 26.5°F-3.1°C 78% 3.0 mph WSW4.8 kmh WSW 6.0 mph9.7 kmh 30.08 in1018.6 mb 0.00 in0.0 mm 0.00 in0.0 mm 0.00 in0.0 mm
10:08 PM 32.8°F0.4°C 26.7°F-2.9°C 78% 3.0 mph WSW4.8 kmh WSW 9.0 mph14.5 kmh 30.08 in1018.6 mb 0.00 in0.0 mm 0.00 in0.0 mm 0.00 in0.0 mm
10:13 PM 33.1°F0.6°C 27.0°F-2.8°C 78% 9.0 mph WSW14.5 kmh WSW 12.0 mph19.3 kmh 30.09 in1019.0 mb 0.00 in0.0 mm 0.00 in0.0 mm 0.00 in0.0 mm
10:18 PM 33.5°F0.8°C 27.3°F-2.6°C 78% 5.0 mph NW8.0 kmh NW 12.0 mph19.3 kmh 30.09 in1019.0 mb 0.00 in0.0 mm 0.00 in0.0 mm 0.00 in0.0 mm
10:23 PM 33.7°F0.9°C 27.5°F-2.5°C 78% 6.0 mph NW9.7 kmh NW 13.0 mph20.9 kmh 30.09 in1019.0 mb 0.00 in0.0 mm 0.00 in0.0 mm 0.00 in0.0 mm
10:28 PM 33.7°F0.9°C 27.5°F-2.5°C 78% 4.0 mph W6.4 kmh W 13.0 mph20.9 kmh 30.09 in1019.0 mb 0.00 in0.0 mm 0.00 in0.0 mm 0.00 in0.0 mm
10:33 PM 33.6°F0.9°C 27.8°F-2.3°C 79% 4.0 mph W6.4 kmh W 13.0 mph20.9 kmh 30.09 in1019.0 mb 0.00 in0.0 mm 0.00 in0.0 mm 0.00 in0.0 mm
10:38 PM 33.5°F0.8°C 28.0°F-2.2°C 80% 5.0 mph W8.0 kmh W 13.0 mph20.9 kmh 30.09 in1019.0 mb 0.00 in0.0 mm 0.00 in0.0 mm 0.00 in0.0 mm
10:43 PM 33.4°F0.8°C 27.9°F-2.3°C 80% 9.0 mph NW14.5 kmh NW 10.0 mph16.1 kmh 30.09 in1019.0 mb 0.00 in0.0 mm 0.00 in0.0 mm 0.00 in0.0 mm
10:48 PM 33.4°F0.8°C 28.2°F-2.1°C 81% 3.0 mph WNW4.8 kmh WNW 10.0 mph16.1 kmh 30.09 in1019.0 mb 0.00 in0.0 mm 0.00 in0.0 mm 0.00 in0.0 mm
10:53 PM 33.3°F0.7°C 28.1°F-2.2°C 81% 1.0 mph WNW1.6 kmh WNW 10.0 mph16.1 kmh 30.09 in1019.0 mb 0.00 in0.0 mm 0.00 in0.0 mm 0.00 in0.0 mm
10:58 PM 33.2°F0.7°C 28.3°F-2.1°C 82% 2.0 mph W3.2 kmh W 10.0 mph16.1 kmh 30.09 in1019.0 mb 0.00 in0.0 mm 0.00 in0.0 mm 0.00 in0.0 mm
11:03 PM 33.1°F0.6°C 28.2°F-2.1°C 82% 3.0 mph W4.8 kmh W 6.0 mph9.7 kmh 30.08 in1018.6 mb 0.00 in0.0 mm 0.00 in0.0 mm 0.00 in0.0 mm
11:08 PM 33.0°F0.6°C 28.1°F-2.2°C 82% 2.0 mph W3.2 kmh W 7.0 mph11.3 kmh 30.09 in1019.0 mb 0.00 in0.0 mm 0.00 in0.0 mm 0.00 in0.0 mm
11:13 PM 32.9°F0.5°C 28.0°F-2.2°C 82% 3.0 mph W4.8 kmh W 7.0 mph11.3 kmh 30.09 in1019.0 mb 0.00 in0.0 mm 0.00 in0.0 mm 0.00 in0.0 mm
11:18 PM 32.8°F0.4°C 27.9°F-2.3°C 82% 5.0 mph WSW8.0 kmh WSW 7.0 mph11.3 kmh 30.09 in1019.0 mb 0.00 in0.0 mm 0.00 in0.0 mm 0.00 in0.0 mm
11:23 PM 32.8°F0.4°C 27.9°F-2.3°C 82% 2.0 mph W3.2 kmh W 7.0 mph11.3 kmh 30.09 in1019.0 mb 0.00 in0.0 mm 0.00 in0.0 mm 0.00 in0.0 mm
11:28 PM 32.7°F0.4°C 27.8°F-2.3°C 82% 4.0 mph W6.4 kmh W 6.0 mph9.7 kmh 30.09 in1019.0 mb 0.00 in0.0 mm 0.00 in0.0 mm 0.00 in0.0 mm
11:33 PM 32.8°F0.4°C 27.9°F-2.3°C 82% 4.0 mph WSW6.4 kmh WSW 6.0 mph9.7 kmh 30.10 in1019.3 mb 0.00 in0.0 mm 0.00 in0.0 mm 0.00 in0.0 mm
11:38 PM 32.8°F0.4°C 27.9°F-2.3°C 82% 4.0 mph WNW6.4 kmh WNW 6.0 mph9.7 kmh 30.09 in1019.0 mb 0.00 in0.0 mm 0.00 in0.0 mm 0.00 in0.0 mm
11:43 PM 32.8°F0.4°C 27.9°F-2.3°C 82% 3.0 mph WSW4.8 kmh WSW 6.0 mph9.7 kmh 30.09 in1019.0 mb 0.00 in0.0 mm 0.00 in0.0 mm 0.00 in0.0 mm
11:48 PM 32.7°F0.4°C 27.8°F-2.3°C 82% 5.0 mph WNW8.0 kmh WNW 8.0 mph12.9 kmh 30.10 in1019.3 mb 0.00 in0.0 mm 0.00 in0.0 mm 0.00 in0.0 mm
11:53 PM 32.7°F0.4°C 27.8°F-2.3°C 82% 6.0 mph WSW9.7 kmh WSW 8.0 mph12.9 kmh 30.10 in1019.3 mb 0.00 in0.0 mm 0.00 in0.0 mm 0.00 in0.0 mm
11:58 PM 32.6°F0.3°C 27.4°F-2.6°C 81% 4.0 mph WSW6.4 kmh WSW 8.0 mph12.9 kmh 30.10 in1019.3 mb 0.00 in0.0 mm 0.00 in0.0 mm 0.00 in0.0 mm